Terminal Aerodrome Forecast
Issued by NWS

Home | Current Version | Previous Version | Graphics & Text | Print | Product List | Glossary On
Versions: 1 2 3 4 5 6 7 8 9 10 11 12 13 14 15 16 17 18 19 20 21 22 23 24 25 26
432
FTUS45 KGGW 231125
TAFGDV
TAF
KGDV 231125Z 2312/2412 VRB05KT P6SM VCSH OVC090
     FM231500 32008KT P6SM OVC090
     FM232300 32009KT P6SM SCT150
     FM241000 33005KT P6SM FEW200=

USA.gov is the U.S. government's official web portal to all federal, state and local government web resources and services.